sensor_id;sensor_type;location;lat;lon;timestamp;P1;durP1;ratioP1;P2;durP2;ratioP2
66597;SDS011;57424;53.128;6.406;2022-11-15T00:00:28;7.20;;;5.90;;
66597;SDS011;57424;53.128;6.406;2022-11-15T00:02:53;7.25;;;6.22;;
66597;SDS011;57424;53.128;6.406;2022-11-15T00:05:20;7.30;;;6.10;;
66597;SDS011;57424;53.128;6.406;2022-11-15T00:07:46;7.63;;;6.28;;
66597;SDS011;57424;53.128;6.406;2022-11-15T00:10:12;8.10;;;6.38;;
66597;SDS011;57424;53.128;6.406;2022-11-15T00:12:38;8.68;;;5.88;;
66597;SDS011;57424;53.128;6.406;2022-11-15T00:15:04;7.63;;;6.22;;
66597;SDS011;57424;53.128;6.406;2022-11-15T00:17:30;7.45;;;5.85;;
66597;SDS011;57424;53.128;6.406;2022-11-15T00:19:55;7.22;;;6.20;;
66597;SDS011;57424;53.128;6.406;2022-11-15T00:22:21;7.10;;;6.03;;
66597;SDS011;57424;53.128;6.406;2022-11-15T00:24:46;9.00;;;6.18;;
66597;SDS011;57424;53.128;6.406;2022-11-15T00:27:12;7.63;;;6.57;;
66597;SDS011;57424;53.128;6.406;2022-11-15T00:29:38;7.20;;;6.47;;
66597;SDS011;57424;53.128;6.406;2022-11-15T00:32:08;7.38;;;5.78;;
66597;SDS011;57424;53.128;6.406;2022-11-15T00:34:37;7.13;;;6.35;;
66597;SDS011;57424;53.128;6.406;2022-11-15T00:37:02;7.97;;;6.15;;
66597;SDS011;57424;53.128;6.406;2022-11-15T00:39:28;7.22;;;5.95;;
66597;SDS011;57424;53.128;6.406;2022-11-15T00:41:53;7.75;;;5.95;;
66597;SDS011;57424;53.128;6.406;2022-11-15T00:44:19;7.72;;;6.30;;
66597;SDS011;57424;53.128;6.406;2022-11-15T00:46:45;7.45;;;6.35;;
66597;SDS011;57424;53.128;6.406;2022-11-15T00:49:11;6.75;;;6.00;;
66597;SDS011;57424;53.128;6.406;2022-11-15T00:51:37;7.40;;;6.07;;
66597;SDS011;57424;53.128;6.406;2022-11-15T00:54:03;7.35;;;5.97;;
66597;SDS011;57424;53.128;6.406;2022-11-15T00:56:30;7.50;;;6.05;;
66597;SDS011;57424;53.128;6.406;2022-11-15T00:58:56;7.32;;;6.13;;
66597;SDS011;57424;53.128;6.406;2022-11-15T01:01:22;7.32;;;5.85;;
66597;SDS011;57424;53.128;6.406;2022-11-15T01:03:47;9.10;;;6.53;;
66597;SDS011;57424;53.128;6.406;2022-11-15T01:06:13;6.38;;;5.38;;
66597;SDS011;57424;53.128;6.406;2022-11-15T01:08:39;7.22;;;6.18;;
66597;SDS011;57424;53.128;6.406;2022-11-15T01:11:06;6.88;;;5.65;;
66597;SDS011;57424;53.128;6.406;2022-11-15T01:13:34;8.10;;;6.10;;
66597;SDS011;57424;53.128;6.406;2022-11-15T01:16:09;8.82;;;5.90;;
66597;SDS011;57424;53.128;6.406;2022-11-15T01:18:37;7.03;;;5.68;;
66597;SDS011;57424;53.128;6.406;2022-11-15T01:21:05;7.47;;;5.57;;
66597;SDS011;57424;53.128;6.406;2022-11-15T01:23:32;7.93;;;5.93;;
66597;SDS011;57424;53.128;6.406;2022-11-15T01:26:00;6.60;;;5.40;;
66597;SDS011;57424;53.128;6.406;2022-11-15T01:28:29;7.88;;;6.35;;
66597;SDS011;57424;53.128;6.406;2022-11-15T01:31:00;6.78;;;6.00;;
66597;SDS011;57424;53.128;6.406;2022-11-15T01:33:26;8.52;;;6.20;;
66597;SDS011;57424;53.128;6.406;2022-11-15T01:38:21;7.65;;;6.10;;
66597;SDS011;57424;53.128;6.406;2022-11-15T01:40:48;8.20;;;5.80;;
66597;SDS011;57424;53.128;6.406;2022-11-15T01:43:21;7.50;;;5.85;;
66597;SDS011;57424;53.128;6.406;2022-11-15T01:45:50;7.57;;;6.07;;
66597;SDS011;57424;53.128;6.406;2022-11-15T01:48:18;8.05;;;5.78;;
66597;SDS011;57424;53.128;6.406;2022-11-15T01:50:46;8.35;;;6.10;;
66597;SDS011;57424;53.128;6.406;2022-11-15T01:53:14;7.18;;;6.00;;
66597;SDS011;57424;53.128;6.406;2022-11-15T01:55:41;7.38;;;5.60;;
66597;SDS011;57424;53.128;6.406;2022-11-15T01:58:08;7.88;;;6.00;;
66597;SDS011;57424;53.128;6.406;2022-11-15T02:00:34;7.07;;;5.25;;
66597;SDS011;57424;53.128;6.406;2022-11-15T02:03:01;6.63;;;5.50;;
66597;SDS011;57424;53.128;6.406;2022-11-15T02:05:28;6.03;;;5.35;;
66597;SDS011;57424;53.128;6.406;2022-11-15T02:10:24;7.90;;;5.85;;
66597;SDS011;57424;53.128;6.406;2022-11-15T02:15:18;6.93;;;5.90;;
66597;SDS011;57424;53.128;6.406;2022-11-15T02:20:24;7.47;;;6.25;;
66597;SDS011;57424;53.128;6.406;2022-11-15T02:25:27;6.57;;;5.47;;
66597;SDS011;57424;53.128;6.406;2022-11-15T02:27:59;7.03;;;5.30;;
66597;SDS011;57424;53.128;6.406;2022-11-15T02:30:41;7.63;;;5.75;;
66597;SDS011;57424;53.128;6.406;2022-11-15T02:33:26;6.43;;;5.68;;
66597;SDS011;57424;53.128;6.406;2022-11-15T02:38:22;7.18;;;5.43;;
66597;SDS011;57424;53.128;6.406;2022-11-15T02:40:53;7.57;;;5.78;;
66597;SDS011;57424;53.128;6.406;2022-11-15T02:43:44;7.50;;;5.50;;
66597;SDS011;57424;53.128;6.406;2022-11-15T02:46:27;6.78;;;5.43;;
66597;SDS011;57424;53.128;6.406;2022-11-15T02:49:14;7.72;;;5.65;;
66597;SDS011;57424;53.128;6.406;2022-11-15T02:51:42;6.07;;;5.20;;
66597;SDS011;57424;53.128;6.406;2022-11-15T02:54:14;5.75;;;4.93;;
66597;SDS011;57424;53.128;6.406;2022-11-15T02:56:43;7.82;;;5.50;;
66597;SDS011;57424;53.128;6.406;2022-11-15T02:59:13;7.68;;;5.70;;
66597;SDS011;57424;53.128;6.406;2022-11-15T03:01:51;7.20;;;5.35;;
66597;SDS011;57424;53.128;6.406;2022-11-15T03:06:50;5.78;;;4.95;;
66597;SDS011;57424;53.128;6.406;2022-11-15T03:09:32;7.25;;;5.57;;
66597;SDS011;57424;53.128;6.406;2022-11-15T03:12:03;6.93;;;5.20;;
66597;SDS011;57424;53.128;6.406;2022-11-15T03:14:40;7.07;;;5.07;;
66597;SDS011;57424;53.128;6.406;2022-11-15T03:17:13;6.55;;;4.80;;
66597;SDS011;57424;53.128;6.406;2022-11-15T03:19:45;6.57;;;5.07;;
66597;SDS011;57424;53.128;6.406;2022-11-15T03:22:15;6.45;;;5.15;;
66597;SDS011;57424;53.128;6.406;2022-11-15T03:24:43;6.60;;;5.18;;
66597;SDS011;57424;53.128;6.406;2022-11-15T03:27:12;5.85;;;5.20;;
66597;SDS011;57424;53.128;6.406;2022-11-15T03:29:43;6.68;;;5.88;;
66597;SDS011;57424;53.128;6.406;2022-11-15T03:32:12;7.40;;;5.28;;
66597;SDS011;57424;53.128;6.406;2022-11-15T03:37:15;7.10;;;4.80;;
66597;SDS011;57424;53.128;6.406;2022-11-15T03:39:43;5.90;;;4.78;;
66597;SDS011;57424;53.128;6.406;2022-11-15T03:42:17;6.93;;;5.00;;
66597;SDS011;57424;53.128;6.406;2022-11-15T03:47:33;6.07;;;5.00;;
66597;SDS011;57424;53.128;6.406;2022-11-15T03:50:06;6.78;;;4.90;;
66597;SDS011;57424;53.128;6.406;2022-11-15T03:52:34;6.57;;;5.13;;
66597;SDS011;57424;53.128;6.406;2022-11-15T03:55:02;6.00;;;5.07;;
66597;SDS011;57424;53.128;6.406;2022-11-15T03:57:30;6.75;;;5.30;;
66597;SDS011;57424;53.128;6.406;2022-11-15T03:59:57;6.40;;;4.97;;
66597;SDS011;57424;53.128;6.406;2022-11-15T04:02:23;6.47;;;5.05;;
66597;SDS011;57424;53.128;6.406;2022-11-15T04:04:50;6.80;;;4.97;;
66597;SDS011;57424;53.128;6.406;2022-11-15T04:07:15;6.28;;;5.20;;
66597;SDS011;57424;53.128;6.406;2022-11-15T04:09:41;5.85;;;4.75;;
66597;SDS011;57424;53.128;6.406;2022-11-15T04:12:25;6.60;;;5.03;;
66597;SDS011;57424;53.128;6.406;2022-11-15T04:14:57;5.55;;;4.28;;
66597;SDS011;57424;53.128;6.406;2022-11-15T04:17:33;7.40;;;5.20;;
66597;SDS011;57424;53.128;6.406;2022-11-15T04:20:00;6.10;;;4.88;;
66597;SDS011;57424;53.128;6.406;2022-11-15T04:22:45;6.55;;;5.00;;
66597;SDS011;57424;53.128;6.406;2022-11-15T04:25:29;5.75;;;4.50;;
66597;SDS011;57424;53.128;6.406;2022-11-15T04:27:55;7.95;;;5.30;;
66597;SDS011;57424;53.128;6.406;2022-11-15T04:30:20;6.80;;;4.88;;
66597;SDS011;57424;53.128;6.406;2022-11-15T04:32:46;7.63;;;5.47;;
66597;SDS011;57424;53.128;6.406;2022-11-15T04:35:11;7.22;;;4.93;;
66597;SDS011;57424;53.128;6.406;2022-11-15T04:37:37;6.05;;;4.70;;
66597;SDS011;57424;53.128;6.406;2022-11-15T04:40:03;8.07;;;5.40;;
66597;SDS011;57424;53.128;6.406;2022-11-15T04:42:28;7.75;;;4.97;;
66597;SDS011;57424;53.128;6.406;2022-11-15T04:44:54;6.60;;;4.82;;
66597;SDS011;57424;53.128;6.406;2022-11-15T04:47:20;7.07;;;5.10;;
66597;SDS011;57424;53.128;6.406;2022-11-15T04:49:46;6.80;;;5.03;;
66597;SDS011;57424;53.128;6.406;2022-11-15T04:52:11;7.10;;;5.43;;
66597;SDS011;57424;53.128;6.406;2022-11-15T04:54:37;7.22;;;4.97;;
66597;SDS011;57424;53.128;6.406;2022-11-15T04:57:02;6.05;;;4.63;;
66597;SDS011;57424;53.128;6.406;2022-11-15T04:59:28;5.97;;;4.93;;
66597;SDS011;57424;53.128;6.406;2022-11-15T05:01:53;8.15;;;5.40;;
66597;SDS011;57424;53.128;6.406;2022-11-15T05:04:19;6.95;;;5.35;;
66597;SDS011;57424;53.128;6.406;2022-11-15T05:06:45;6.60;;;5.07;;
66597;SDS011;57424;53.128;6.406;2022-11-15T05:09:15;6.85;;;4.95;;
66597;SDS011;57424;53.128;6.406;2022-11-15T05:11:41;6.28;;;4.65;;
66597;SDS011;57424;53.128;6.406;2022-11-15T05:14:07;7.13;;;4.90;;
66597;SDS011;57424;53.128;6.406;2022-11-15T05:16:32;6.32;;;4.80;;
66597;SDS011;57424;53.128;6.406;2022-11-15T05:18:58;6.82;;;4.85;;
66597;SDS011;57424;53.128;6.406;2022-11-15T05:21:23;8.98;;;5.15;;
66597;SDS011;57424;53.128;6.406;2022-11-15T05:23:49;8.68;;;4.85;;
66597;SDS011;57424;53.128;6.406;2022-11-15T05:26:15;7.18;;;5.00;;
66597;SDS011;57424;53.128;6.406;2022-11-15T05:28:43;8.40;;;5.07;;
66597;SDS011;57424;53.128;6.406;2022-11-15T05:31:10;6.97;;;5.05;;
66597;SDS011;57424;53.128;6.406;2022-11-15T05:33:38;9.15;;;5.32;;
66597;SDS011;57424;53.128;6.406;2022-11-15T05:38:31;7.38;;;4.97;;
66597;SDS011;57424;53.128;6.406;2022-11-15T05:40:56;8.05;;;4.88;;
66597;SDS011;57424;53.128;6.406;2022-11-15T05:43:22;6.38;;;5.00;;
66597;SDS011;57424;53.128;6.406;2022-11-15T05:45:48;7.10;;;4.70;;
66597;SDS011;57424;53.128;6.406;2022-11-15T05:48:14;6.68;;;5.07;;
66597;SDS011;57424;53.128;6.406;2022-11-15T05:50:41;6.55;;;4.57;;
66597;SDS011;57424;53.128;6.406;2022-11-15T05:53:10;8.38;;;5.15;;
66597;SDS011;57424;53.128;6.406;2022-11-15T05:55:38;6.40;;;4.70;;
66597;SDS011;57424;53.128;6.406;2022-11-15T05:58:04;10.05;;;5.10;;
66597;SDS011;57424;53.128;6.406;2022-11-15T06:00:30;6.68;;;4.68;;
66597;SDS011;57424;53.128;6.406;2022-11-15T06:02:56;10.55;;;4.53;;
66597;SDS011;57424;53.128;6.406;2022-11-15T06:05:21;9.65;;;4.93;;
66597;SDS011;57424;53.128;6.406;2022-11-15T06:07:47;9.02;;;5.53;;
66597;SDS011;57424;53.128;6.406;2022-11-15T06:10:12;10.48;;;5.07;;
66597;SDS011;57424;53.128;6.406;2022-11-15T06:12:38;9.65;;;5.60;;
66597;SDS011;57424;53.128;6.406;2022-11-15T06:15:04;7.32;;;5.72;;
66597;SDS011;57424;53.128;6.406;2022-11-15T06:17:29;9.88;;;5.10;;
66597;SDS011;57424;53.128;6.406;2022-11-15T06:19:55;6.30;;;4.75;;
66597;SDS011;57424;53.128;6.406;2022-11-15T06:22:20;7.50;;;5.68;;
66597;SDS011;57424;53.128;6.406;2022-11-15T06:24:46;7.03;;;4.80;;
66597;SDS011;57424;53.128;6.406;2022-11-15T06:27:12;7.80;;;5.50;;
66597;SDS011;57424;53.128;6.406;2022-11-15T06:29:37;8.93;;;5.70;;
66597;SDS011;57424;53.128;6.406;2022-11-15T06:32:03;7.30;;;5.72;;
66597;SDS011;57424;53.128;6.406;2022-11-15T06:34:29;7.90;;;5.55;;
66597;SDS011;57424;53.128;6.406;2022-11-15T06:36:54;7.53;;;5.10;;
66597;SDS011;57424;53.128;6.406;2022-11-15T06:39:20;8.80;;;5.32;;
66597;SDS011;57424;53.128;6.406;2022-11-15T06:41:45;8.93;;;5.68;;
66597;SDS011;57424;53.128;6.406;2022-11-15T06:44:11;10.10;;;5.20;;
66597;SDS011;57424;53.128;6.406;2022-11-15T06:46:36;9.95;;;5.53;;
66597;SDS011;57424;53.128;6.406;2022-11-15T06:49:02;8.27;;;5.40;;
66597;SDS011;57424;53.128;6.406;2022-11-15T06:51:27;6.97;;;5.05;;
66597;SDS011;57424;53.128;6.406;2022-11-15T06:53:53;7.95;;;5.32;;
66597;SDS011;57424;53.128;6.406;2022-11-15T06:56:19;16.67;;;5.60;;
66597;SDS011;57424;53.128;6.406;2022-11-15T06:58:45;9.43;;;5.85;;
66597;SDS011;57424;53.128;6.406;2022-11-15T07:01:11;13.27;;;5.70;;
66597;SDS011;57424;53.128;6.406;2022-11-15T07:03:38;7.85;;;5.28;;
66597;SDS011;57424;53.128;6.406;2022-11-15T07:06:04;7.75;;;5.20;;
66597;SDS011;57424;53.128;6.406;2022-11-15T07:08:30;7.57;;;5.10;;
66597;SDS011;57424;53.128;6.406;2022-11-15T07:11:00;10.45;;;5.80;;
66597;SDS011;57424;53.128;6.406;2022-11-15T07:13:28;6.78;;;4.97;;
66597;SDS011;57424;53.128;6.406;2022-11-15T07:15:54;8.50;;;5.50;;
66597;SDS011;57424;53.128;6.406;2022-11-15T07:18:20;7.80;;;5.18;;
66597;SDS011;57424;53.128;6.406;2022-11-15T07:20:46;7.82;;;4.85;;
66597;SDS011;57424;53.128;6.406;2022-11-15T07:23:12;7.85;;;5.50;;
66597;SDS011;57424;53.128;6.406;2022-11-15T07:25:37;7.10;;;4.85;;
66597;SDS011;57424;53.128;6.406;2022-11-15T07:28:03;7.65;;;4.80;;
66597;SDS011;57424;53.128;6.406;2022-11-15T07:30:29;7.10;;;5.05;;
66597;SDS011;57424;53.128;6.406;2022-11-15T07:32:55;8.23;;;5.10;;
66597;SDS011;57424;53.128;6.406;2022-11-15T07:35:21;8.27;;;5.50;;
66597;SDS011;57424;53.128;6.406;2022-11-15T07:37:57;7.78;;;5.20;;
66597;SDS011;57424;53.128;6.406;2022-11-15T07:40:25;8.65;;;5.13;;
66597;SDS011;57424;53.128;6.406;2022-11-15T07:42:52;7.25;;;5.53;;
66597;SDS011;57424;53.128;6.406;2022-11-15T07:45:23;8.65;;;5.40;;
66597;SDS011;57424;53.128;6.406;2022-11-15T07:47:51;7.93;;;5.20;;
66597;SDS011;57424;53.128;6.406;2022-11-15T07:50:17;8.18;;;4.97;;
66597;SDS011;57424;53.128;6.406;2022-11-15T07:52:43;7.13;;;5.05;;
66597;SDS011;57424;53.128;6.406;2022-11-15T07:55:09;8.25;;;5.13;;
66597;SDS011;57424;53.128;6.406;2022-11-15T07:57:35;6.40;;;4.85;;
66597;SDS011;57424;53.128;6.406;2022-11-15T08:00:00;9.40;;;5.05;;
66597;SDS011;57424;53.128;6.406;2022-11-15T08:02:26;7.85;;;4.82;;
66597;SDS011;57424;53.128;6.406;2022-11-15T08:04:52;6.90;;;4.93;;
66597;SDS011;57424;53.128;6.406;2022-11-15T08:07:17;6.63;;;4.57;;
66597;SDS011;57424;53.128;6.406;2022-11-15T08:09:43;8.45;;;4.95;;
66597;SDS011;57424;53.128;6.406;2022-11-15T08:12:08;6.88;;;4.90;;
66597;SDS011;57424;53.128;6.406;2022-11-15T08:14:34;7.55;;;5.00;;
66597;SDS011;57424;53.128;6.406;2022-11-15T08:17:00;7.95;;;4.57;;
66597;SDS011;57424;53.128;6.406;2022-11-15T08:19:26;9.70;;;5.28;;
66597;SDS011;57424;53.128;6.406;2022-11-15T08:21:52;8.45;;;4.90;;
66597;SDS011;57424;53.128;6.406;2022-11-15T08:24:17;6.82;;;4.78;;
66597;SDS011;57424;53.128;6.406;2022-11-15T08:26:43;6.82;;;5.05;;
66597;SDS011;57424;53.128;6.406;2022-11-15T08:29:09;6.13;;;4.18;;
66597;SDS011;57424;53.128;6.406;2022-11-15T08:31:35;7.93;;;5.13;;
66597;SDS011;57424;53.128;6.406;2022-11-15T08:34:04;7.88;;;4.82;;
66597;SDS011;57424;53.128;6.406;2022-11-15T08:36:30;7.43;;;4.60;;
66597;SDS011;57424;53.128;6.406;2022-11-15T08:38:56;7.75;;;4.65;;
66597;SDS011;57424;53.128;6.406;2022-11-15T08:41:30;6.88;;;4.85;;
66597;SDS011;57424;53.128;6.406;2022-11-15T08:44:00;10.38;;;5.63;;
66597;SDS011;57424;53.128;6.406;2022-11-15T08:46:26;5.85;;;4.90;;
66597;SDS011;57424;53.128;6.406;2022-11-15T08:48:51;5.75;;;4.53;;
66597;SDS011;57424;53.128;6.406;2022-11-15T08:51:17;7.10;;;4.32;;
66597;SDS011;57424;53.128;6.406;2022-11-15T08:53:43;9.82;;;4.82;;
66597;SDS011;57424;53.128;6.406;2022-11-15T08:56:09;7.45;;;4.70;;
66597;SDS011;57424;53.128;6.406;2022-11-15T08:58:36;6.60;;;4.63;;
66597;SDS011;57424;53.128;6.406;2022-11-15T09:01:02;5.82;;;4.50;;
66597;SDS011;57424;53.128;6.406;2022-11-15T09:03:28;6.60;;;4.28;;
66597;SDS011;57424;53.128;6.406;2022-11-15T09:05:54;7.53;;;4.78;;
66597;SDS011;57424;53.128;6.406;2022-11-15T09:08:20;8.00;;;4.73;;
66597;SDS011;57424;53.128;6.406;2022-11-15T09:10:46;5.70;;;4.68;;
66597;SDS011;57424;53.128;6.406;2022-11-15T09:13:12;7.50;;;4.63;;
66597;SDS011;57424;53.128;6.406;2022-11-15T09:15:38;6.60;;;4.90;;
66597;SDS011;57424;53.128;6.406;2022-11-15T09:18:04;10.40;;;4.80;;
66597;SDS011;57424;53.128;6.406;2022-11-15T09:20:29;5.70;;;4.20;;
66597;SDS011;57424;53.128;6.406;2022-11-15T09:22:58;6.07;;;4.38;;
66597;SDS011;57424;53.128;6.406;2022-11-15T09:25:24;5.60;;;4.13;;
66597;SDS011;57424;53.128;6.406;2022-11-15T09:27:50;6.50;;;4.45;;
66597;SDS011;57424;53.128;6.406;2022-11-15T09:30:15;5.55;;;4.10;;
66597;SDS011;57424;53.128;6.406;2022-11-15T09:32:41;5.93;;;4.43;;
66597;SDS011;57424;53.128;6.406;2022-11-15T09:35:06;6.78;;;3.90;;
66597;SDS011;57424;53.128;6.406;2022-11-15T09:37:32;5.70;;;4.43;;
66597;SDS011;57424;53.128;6.406;2022-11-15T09:39:58;5.43;;;4.43;;
66597;SDS011;57424;53.128;6.406;2022-11-15T09:45:23;5.68;;;4.30;;
66597;SDS011;57424;53.128;6.406;2022-11-15T09:50:51;4.97;;;3.83;;
66597;SDS011;57424;53.128;6.406;2022-11-15T09:53:31;4.53;;;3.90;;
66597;SDS011;57424;53.128;6.406;2022-11-15T09:56:17;6.22;;;4.22;;
66597;SDS011;57424;53.128;6.406;2022-11-15T09:58:53;8.38;;;3.90;;
66597;SDS011;57424;53.128;6.406;2022-11-15T10:01:53;10.35;;;4.18;;
66597;SDS011;57424;53.128;6.406;2022-11-15T10:04:21;7.15;;;3.97;;
66597;SDS011;57424;53.128;6.406;2022-11-15T10:06:54;6.38;;;4.20;;
66597;SDS011;57424;53.128;6.406;2022-11-15T10:09:24;5.72;;;4.13;;
66597;SDS011;57424;53.128;6.406;2022-11-15T10:11:54;5.35;;;3.75;;
66597;SDS011;57424;53.128;6.406;2022-11-15T10:14:21;5.68;;;4.30;;
66597;SDS011;57424;53.128;6.406;2022-11-15T10:19:52;8.68;;;3.92;;
66597;SDS011;57424;53.128;6.406;2022-11-15T10:22:18;7.68;;;4.15;;
66597;SDS011;57424;53.128;6.406;2022-11-15T10:24:52;6.15;;;3.60;;
66597;SDS011;57424;53.128;6.406;2022-11-15T10:27:38;6.35;;;3.55;;
66597;SDS011;57424;53.128;6.406;2022-11-15T10:30:10;12.95;;;4.20;;
66597;SDS011;57424;53.128;6.406;2022-11-15T10:32:41;5.35;;;3.90;;
66597;SDS011;57424;53.128;6.406;2022-11-15T10:37:48;6.18;;;3.47;;
66597;SDS011;57424;53.128;6.406;2022-11-15T10:40:16;6.50;;;3.78;;
66597;SDS011;57424;53.128;6.406;2022-11-15T10:42:44;4.78;;;3.38;;
66597;SDS011;57424;53.128;6.406;2022-11-15T10:45:23;6.05;;;3.67;;
66597;SDS011;57424;53.128;6.406;2022-11-15T10:47:51;5.50;;;3.80;;
66597;SDS011;57424;53.128;6.406;2022-11-15T10:50:27;10.55;;;3.85;;
66597;SDS011;57424;53.128;6.406;2022-11-15T10:52:55;5.95;;;3.25;;
66597;SDS011;57424;53.128;6.406;2022-11-15T10:55:22;6.70;;;3.80;;
66597;SDS011;57424;53.128;6.406;2022-11-15T10:57:52;5.07;;;3.63;;
66597;SDS011;57424;53.128;6.406;2022-11-15T11:00:41;5.55;;;3.55;;
66597;SDS011;57424;53.128;6.406;2022-11-15T11:06:17;6.32;;;3.35;;
66597;SDS011;57424;53.128;6.406;2022-11-15T11:11:43;6.38;;;3.75;;
66597;SDS011;57424;53.128;6.406;2022-11-15T11:14:12;5.38;;;3.75;;
66597;SDS011;57424;53.128;6.406;2022-11-15T11:16:44;4.50;;;3.25;;
66597;SDS011;57424;53.128;6.406;2022-11-15T11:22:11;5.78;;;3.50;;
66597;SDS011;57424;53.128;6.406;2022-11-15T11:24:53;5.57;;;3.50;;
66597;SDS011;57424;53.128;6.406;2022-11-15T11:27:36;6.68;;;3.70;;
66597;SDS011;57424;53.128;6.406;2022-11-15T11:30:19;4.15;;;3.25;;
66597;SDS011;57424;53.128;6.406;2022-11-15T11:33:30;7.28;;;3.35;;
66597;SDS011;57424;53.128;6.406;2022-11-15T11:36:12;5.32;;;3.38;;
66597;SDS011;57424;53.128;6.406;2022-11-15T11:44:25;5.18;;;3.30;;
66597;SDS011;57424;53.128;6.406;2022-11-15T11:47:12;4.20;;;3.35;;
66597;SDS011;57424;53.128;6.406;2022-11-15T11:49:59;4.95;;;3.03;;
66597;SDS011;57424;53.128;6.406;2022-11-15T11:52:31;4.80;;;3.35;;
66597;SDS011;57424;53.128;6.406;2022-11-15T12:00:20;4.72;;;3.30;;
66597;SDS011;57424;53.128;6.406;2022-11-15T12:11:00;5.72;;;3.08;;
66597;SDS011;57424;53.128;6.406;2022-11-15T12:13:31;5.30;;;2.97;;
66597;SDS011;57424;53.128;6.406;2022-11-15T12:18:37;4.45;;;3.08;;
66597;SDS011;57424;53.128;6.406;2022-11-15T12:23:50;4.85;;;3.00;;
66597;SDS011;57424;53.128;6.406;2022-11-15T12:26:29;3.95;;;2.88;;
66597;SDS011;57424;53.128;6.406;2022-11-15T12:29:01;4.43;;;3.08;;
66597;SDS011;57424;53.128;6.406;2022-11-15T12:31:36;4.50;;;2.72;;
66597;SDS011;57424;53.128;6.406;2022-11-15T12:36:45;5.35;;;2.47;;
66597;SDS011;57424;53.128;6.406;2022-11-15T12:39:11;7.60;;;2.78;;
66597;SDS011;57424;53.128;6.406;2022-11-15T12:41:39;4.22;;;2.97;;
66597;SDS011;57424;53.128;6.406;2022-11-15T12:44:10;5.53;;;2.58;;
66597;SDS011;57424;53.128;6.406;2022-11-15T12:49:51;4.03;;;2.72;;
66597;SDS011;57424;53.128;6.406;2022-11-15T12:59:50;3.15;;;2.20;;
66597;SDS011;57424;53.128;6.406;2022-11-15T13:02:32;4.75;;;2.42;;
66597;SDS011;57424;53.128;6.406;2022-11-15T13:17:42;4.05;;;2.47;;
66597;SDS011;57424;53.128;6.406;2022-11-15T13:22:42;4.00;;;2.03;;
66597;SDS011;57424;53.128;6.406;2022-11-15T13:28:22;5.22;;;2.25;;
66597;SDS011;57424;53.128;6.406;2022-11-15T13:31:01;3.40;;;2.20;;
66597;SDS011;57424;53.128;6.406;2022-11-15T13:33:42;3.25;;;2.15;;
66597;SDS011;57424;53.128;6.406;2022-11-15T13:36:12;3.80;;;2.30;;
66597;SDS011;57424;53.128;6.406;2022-11-15T13:38:41;5.07;;;2.50;;
66597;SDS011;57424;53.128;6.406;2022-11-15T13:41:21;4.20;;;2.10;;
66597;SDS011;57424;53.128;6.406;2022-11-15T13:43:52;3.95;;;2.10;;
66597;SDS011;57424;53.128;6.406;2022-11-15T13:46:20;3.22;;;2.00;;
66597;SDS011;57424;53.128;6.406;2022-11-15T13:48:51;3.58;;;2.22;;
66597;SDS011;57424;53.128;6.406;2022-11-15T13:51:20;3.50;;;2.10;;
66597;SDS011;57424;53.128;6.406;2022-11-15T13:53:50;4.53;;;2.50;;
66597;SDS011;57424;53.128;6.406;2022-11-15T13:56:17;3.22;;;2.00;;
66597;SDS011;57424;53.128;6.406;2022-11-15T13:58:44;3.50;;;2.00;;
66597;SDS011;57424;53.128;6.406;2022-11-15T14:01:16;4.97;;;1.93;;
66597;SDS011;57424;53.128;6.406;2022-11-15T14:03:49;7.88;;;2.42;;
66597;SDS011;57424;53.128;6.406;2022-11-15T14:06:24;7.25;;;2.20;;
66597;SDS011;57424;53.128;6.406;2022-11-15T14:11:30;3.50;;;1.95;;
66597;SDS011;57424;53.128;6.406;2022-11-15T14:14:04;2.38;;;1.90;;
66597;SDS011;57424;53.128;6.406;2022-11-15T14:16:34;3.70;;;1.77;;
66597;SDS011;57424;53.128;6.406;2022-11-15T14:19:10;2.45;;;1.80;;
66597;SDS011;57424;53.128;6.406;2022-11-15T14:24:35;4.63;;;1.73;;
66597;SDS011;57424;53.128;6.406;2022-11-15T14:29:51;4.57;;;2.10;;
66597;SDS011;57424;53.128;6.406;2022-11-15T14:32:18;3.47;;;1.95;;
66597;SDS011;57424;53.128;6.406;2022-11-15T14:34:44;4.97;;;2.00;;
66597;SDS011;57424;53.128;6.406;2022-11-15T14:37:24;2.90;;;1.65;;
66597;SDS011;57424;53.128;6.406;2022-11-15T14:39:52;3.60;;;2.00;;
66597;SDS011;57424;53.128;6.406;2022-11-15T14:42:18;3.53;;;1.90;;
66597;SDS011;57424;53.128;6.406;2022-11-15T14:44:45;3.40;;;2.15;;
66597;SDS011;57424;53.128;6.406;2022-11-15T14:47:11;4.82;;;1.80;;
66597;SDS011;57424;53.128;6.406;2022-11-15T14:49:36;4.65;;;1.80;;
66597;SDS011;57424;53.128;6.406;2022-11-15T14:52:02;7.30;;;1.92;;
66597;SDS011;57424;53.128;6.406;2022-11-15T14:54:49;2.80;;;1.60;;
66597;SDS011;57424;53.128;6.406;2022-11-15T14:57:15;5.28;;;1.75;;
66597;SDS011;57424;53.128;6.406;2022-11-15T14:59:41;3.63;;;1.80;;
66597;SDS011;57424;53.128;6.406;2022-11-15T15:02:09;6.70;;;2.00;;
66597;SDS011;57424;53.128;6.406;2022-11-15T15:04:42;6.45;;;1.80;;
66597;SDS011;57424;53.128;6.406;2022-11-15T15:07:07;3.60;;;1.85;;
66597;SDS011;57424;53.128;6.406;2022-11-15T15:09:33;8.07;;;2.10;;
66597;SDS011;57424;53.128;6.406;2022-11-15T15:11:58;6.13;;;1.85;;
66597;SDS011;57424;53.128;6.406;2022-11-15T15:14:24;5.53;;;1.85;;
66597;SDS011;57424;53.128;6.406;2022-11-15T15:16:49;7.25;;;2.00;;
66597;SDS011;57424;53.128;6.406;2022-11-15T15:19:15;13.13;;;2.30;;
66597;SDS011;57424;53.128;6.406;2022-11-15T15:21:40;3.17;;;1.67;;
66597;SDS011;57424;53.128;6.406;2022-11-15T15:24:07;5.57;;;1.70;;
66597;SDS011;57424;53.128;6.406;2022-11-15T15:26:39;3.63;;;1.70;;
66597;SDS011;57424;53.128;6.406;2022-11-15T15:29:05;7.13;;;1.67;;
66597;SDS011;57424;53.128;6.406;2022-11-15T15:31:34;4.20;;;1.95;;
66597;SDS011;57424;53.128;6.406;2022-11-15T15:34:01;4.28;;;1.70;;
66597;SDS011;57424;53.128;6.406;2022-11-15T15:36:28;3.80;;;1.60;;
66597;SDS011;57424;53.128;6.406;2022-11-15T15:38:53;2.53;;;1.60;;
66597;SDS011;57424;53.128;6.406;2022-11-15T15:41:19;4.78;;;1.33;;
66597;SDS011;57424;53.128;6.406;2022-11-15T15:43:46;3.80;;;1.63;;
66597;SDS011;57424;53.128;6.406;2022-11-15T15:46:16;4.07;;;1.55;;
66597;SDS011;57424;53.128;6.406;2022-11-15T15:48:43;5.68;;;1.48;;
66597;SDS011;57424;53.128;6.406;2022-11-15T15:51:10;3.03;;;1.50;;
66597;SDS011;57424;53.128;6.406;2022-11-15T15:53:37;2.75;;;1.50;;
66597;SDS011;57424;53.128;6.406;2022-11-15T15:56:04;2.83;;;1.40;;
66597;SDS011;57424;53.128;6.406;2022-11-15T15:58:33;6.78;;;1.92;;
66597;SDS011;57424;53.128;6.406;2022-11-15T16:00:59;3.80;;;1.70;;
66597;SDS011;57424;53.128;6.406;2022-11-15T16:03:26;3.92;;;1.52;;
66597;SDS011;57424;53.128;6.406;2022-11-15T16:05:53;2.42;;;1.40;;
66597;SDS011;57424;53.128;6.406;2022-11-15T16:08:23;3.70;;;1.45;;
66597;SDS011;57424;53.128;6.406;2022-11-15T16:10:54;2.50;;;1.48;;
66597;SDS011;57424;53.128;6.406;2022-11-15T16:13:21;2.58;;;1.38;;
66597;SDS011;57424;53.128;6.406;2022-11-15T16:15:48;3.70;;;1.63;;
66597;SDS011;57424;53.128;6.406;2022-11-15T16:18:16;3.70;;;1.40;;
66597;SDS011;57424;53.128;6.406;2022-11-15T16:20:47;14.00;;;2.07;;
66597;SDS011;57424;53.128;6.406;2022-11-15T16:23:15;7.72;;;2.40;;
66597;SDS011;57424;53.128;6.406;2022-11-15T16:28:14;9.77;;;3.00;;
66597;SDS011;57424;53.128;6.406;2022-11-15T16:30:42;9.90;;;3.35;;
66597;SDS011;57424;53.128;6.406;2022-11-15T16:33:09;9.10;;;3.35;;
66597;SDS011;57424;53.128;6.406;2022-11-15T16:35:35;15.45;;;3.65;;
66597;SDS011;57424;53.128;6.406;2022-11-15T16:38:02;13.82;;;3.95;;
66597;SDS011;57424;53.128;6.406;2022-11-15T16:40:29;12.45;;;3.78;;
66597;SDS011;57424;53.128;6.406;2022-11-15T16:42:57;9.85;;;3.85;;
66597;SDS011;57424;53.128;6.406;2022-11-15T16:45:28;10.80;;;3.50;;
66597;SDS011;57424;53.128;6.406;2022-11-15T16:47:55;12.35;;;4.05;;
66597;SDS011;57424;53.128;6.406;2022-11-15T16:50:26;7.20;;;3.13;;